Time;durP1;ratioP1;P1;durP2;ratioP2;P2;SDS_P1;SDS_P2;PMS_P1;PMS_P2;Temp;Humidity;BMP_temperature;BMP_pressure;BME280_temperature;BME280_humidity;BME280_pressure;Samples;Min_cycle;Max_cycle;Signal;HPM_P1;HPM_P2
2022/05/16 00:00:16;;;;;;;5.87;5.30;;;;;;;13.61;100.00;99561.13;4819832;29;20227;-78
2022/05/16 00:02:43;;;;;;;6.00;5.40;;;;;;;13.60;100.00;99556.78;4803547;29;20181;-77
2022/05/16 00:05:10;;;;;;;6.67;5.97;;;;;;;13.56;100.00;99559.16;4820488;29;20204;-78
2022/05/16 00:07:37;;;;;;;7.67;6.03;;;;;;;13.51;100.00;99550.16;4807354;29;20206;-78
2022/05/16 00:10:05;;;;;;;7.53;5.70;;;;;;;13.51;100.00;99563.63;4807066;29;20275;-77
2022/05/16 00:12:32;;;;;;;6.27;5.77;;;;;;;13.48;100.00;99564.13;4807235;29;20250;-77
2022/05/16 00:14:59;;;;;;;6.37;5.77;;;;;;;13.45;100.00;99570.78;4807068;29;20295;-77
2022/05/16 00:17:26;;;;;;;6.70;6.10;;;;;;;13.38;100.00;99562.03;4823588;29;20275;-77
2022/05/16 00:19:53;;;;;;;6.60;5.90;;;;;;;13.36;100.00;99568.69;4806710;29;20249;-79
2022/05/16 00:22:20;;;;;;;7.63;6.20;;;;;;;13.32;100.00;99559.47;4807219;29;20222;-77
2022/05/16 00:24:46;;;;;;;7.17;6.47;;;;;;;13.26;100.00;99550.47;4822946;29;20303;-77
2022/05/16 00:27:13;;;;;;;6.83;6.17;;;;;;;13.28;100.00;99563.69;4823095;29;20299;-77
2022/05/16 00:29:40;;;;;;;6.40;5.80;;;;;;;13.27;100.00;99564.75;4822927;29;20203;-78
2022/05/16 00:32:08;;;;;;;7.00;6.40;;;;;;;13.19;100.00;99558.69;4823040;29;20228;-77
2022/05/16 00:34:36;;;;;;;7.00;6.10;;;;;;;13.22;100.00;99557.41;4822941;29;20284;-77
2022/05/16 00:37:03;;;;;;;9.07;5.93;;;;;;;13.17;100.00;99560.81;4822995;29;20702;-78
2022/05/16 00:39:30;;;;;;;7.20;6.50;;;;;;;13.10;100.00;99560.09;4822531;29;20230;-78
2022/05/16 00:41:57;;;;;;;7.23;6.43;;;;;;;13.04;100.00;99557.53;4823141;29;20218;-78
2022/05/16 00:44:24;;;;;;;8.03;6.30;;;;;;;13.05;100.00;99557.31;4823029;29;20278;-77
2022/05/16 00:46:51;;;;;;;7.90;6.40;;;;;;;12.97;100.00;99562.25;4822897;29;20217;-78
2022/05/16 00:49:27;;;;;;;6.73;6.23;;;;;;;12.94;100.00;99558.13;4823118;29;20605;-77
2022/05/16 00:52:05;;;;;;;7.90;6.43;;;;;;;12.89;100.00;99563.41;4822963;29;20538;-78
2022/05/16 00:54:43;;;;;;;9.17;6.57;;;;;;;12.89;100.00;99558.03;4806527;29;20199;-78
2022/05/16 00:57:13;;;;;;;7.10;6.50;;;;;;;12.89;100.00;99554.50;4792154;29;20900;-77
2022/05/16 00:59:48;;;;;;;7.33;6.33;;;;;;;12.84;100.00;99557.91;4806456;29;20218;-77
2022/05/16 01:05:06;;;;;;;8.23;6.30;;;;;;;12.78;100.00;99562.34;4809590;29;20219;-78
2022/05/16 01:07:35;;;;;;;7.17;6.57;;;;;;;12.77;100.00;99562.59;4822935;29;20203;-77
2022/05/16 01:10:04;;;;;;;7.33;6.63;;;;;;;12.76;100.00;99558.28;4806706;29;20227;-78
2022/05/16 01:12:37;;;;;;;6.60;6.10;;;;;;;12.71;100.00;99553.59;4823002;29;20734;-78
2022/05/16 01:15:07;;;;;;;6.67;6.13;;;;;;;12.71;100.00;99558.97;4822620;29;20272;-78
2022/05/16 01:17:34;;;;;;;8.57;7.20;;;;;;;12.64;100.00;99552.91;4822172;29;20204;-77
2022/05/16 01:20:00;;;;;;;7.37;6.70;;;;;;;12.62;100.00;99551.50;4822351;29;20192;-78
2022/05/16 01:22:30;;;;;;;7.13;6.53;;;;;;;12.61;100.00;99556.06;4822803;29;20235;-77
2022/05/16 01:25:04;;;;;;;7.40;6.67;;;;;;;12.60;100.00;99557.09;4822680;29;20191;-77
2022/05/16 01:28:04;;;;;;;7.27;6.57;;;;;;;12.61;100.00;99563.31;4806630;29;20606;-77
2022/05/16 01:30:41;;;;;;;7.57;6.57;;;;;;;12.59;100.00;99558.19;4782560;29;20246;-79
2022/05/16 01:33:08;;;;;;;8.17;6.20;;;;;;;12.58;100.00;99555.72;4822523;29;20244;-78
2022/05/16 01:35:34;;;;;;;7.50;6.67;;;;;;;12.54;100.00;99563.44;4822565;29;20662;-78
2022/05/16 01:38:19;;;;;;;7.03;6.43;;;;;;;12.53;100.00;99566.34;4822861;29;20282;-78
2022/05/16 01:40:53;;;;;;;7.80;7.07;;;;;;;12.49;100.00;99570.56;4822317;29;20284;-77
2022/05/16 01:43:21;;;;;;;6.67;6.13;;;;;;;12.42;100.00;99559.91;4806856;29;20212;-77
2022/05/16 01:45:49;;;;;;;7.30;6.60;;;;;;;12.37;100.00;99559.78;4806028;29;20206;-77
2022/05/16 01:48:17;;;;;;;6.90;6.30;;;;;;;12.33;100.00;99561.31;4806325;29;20186;-77
2022/05/16 01:50:45;;;;;;;7.17;6.50;;;;;;;12.21;100.00;99555.94;4822106;29;20672;-77
2022/05/16 01:53:13;;;;;;;7.57;6.97;;;;;;;12.23;100.00;99561.06;4821987;29;20275;-77
2022/05/16 01:55:40;;;;;;;7.80;7.10;;;;;;;12.21;100.00;99561.31;4822322;29;20226;-77
2022/05/16 01:58:07;;;;;;;7.00;6.40;;;;;;;12.15;100.00;99572.97;4822340;29;20217;-77
2022/05/16 02:00:34;;;;;;;7.90;7.10;;;;;;;12.09;100.00;99562.31;4805754;29;20688;-78
2022/05/16 02:03:01;;;;;;;7.70;6.53;;;;;;;12.03;100.00;99564.09;4821709;29;20191;-78
2022/05/16 02:05:29;;;;;;;8.00;7.23;;;;;;;12.00;100.00;99569.91;4822143;29;20198;-77
2022/05/16 02:07:55;;;;;;;7.27;6.57;;;;;;;11.97;100.00;99572.22;4805860;29;20278;-77
2022/05/16 02:10:24;;;;;;;7.90;7.20;;;;;;;11.96;100.00;99574.09;4822083;29;20250;-79
2022/05/16 02:12:51;;;;;;;8.23;6.93;;;;;;;11.93;100.00;99565.69;4821858;29;20226;-77
2022/05/16 02:15:21;;;;;;;7.40;6.80;;;;;;;11.86;100.00;99565.78;4822474;29;20223;-77
2022/05/16 02:17:48;;;;;;;7.53;6.77;;;;;;;11.81;100.00;99558.41;4805468;29;20335;-78
2022/05/16 02:20:15;;;;;;;10.07;7.53;;;;;;;11.81;100.00;99573.69;4821746;29;20281;-78
2022/05/16 02:25:28;;;;;;;8.00;7.30;;;;;;;11.76;100.00;99571.69;4821837;29;20277;-78
2022/05/16 02:27:54;;;;;;;8.27;7.20;;;;;;;11.74;100.00;99572.97;4804604;29;20195;-78
2022/05/16 02:30:22;;;;;;;10.93;7.37;;;;;;;11.73;100.00;99574.84;4821671;29;20226;-77
2022/05/16 02:32:49;;;;;;;7.67;6.97;;;;;;;11.70;100.00;99577.13;4821667;29;20235;-77
2022/05/16 02:35:19;;;;;;;7.70;7.00;;;;;;;11.69;100.00;99575.50;4822072;29;20196;-77
2022/05/16 02:37:46;;;;;;;8.27;7.43;;;;;;;11.63;100.00;99577.22;4822245;29;20292;-77
2022/05/16 02:40:13;;;;;;;9.17;7.30;;;;;;;11.59;100.00;99568.00;4821503;29;20204;-77
2022/05/16 02:42:40;;;;;;;8.10;7.30;;;;;;;11.53;100.00;99571.56;4821262;29;20794;-78
2022/05/16 02:45:08;;;;;;;9.23;8.33;;;;;;;11.49;100.00;99568.53;4821474;29;20193;-78
2022/05/16 02:47:35;;;;;;;8.63;7.80;;;;;;;11.48;100.00;99571.44;4821672;29;20190;-78
2022/05/16 02:50:03;;;;;;;8.03;7.33;;;;;;;11.47;100.00;99564.44;4821656;29;20225;-77
2022/05/16 02:52:30;;;;;;;8.40;7.60;;;;;;;11.44;100.00;99564.88;4805236;29;20284;-78
2022/05/16 02:55:00;;;;;;;8.43;7.73;;;;;;;11.43;100.00;99566.75;4805002;29;20276;-78
2022/05/16 02:57:38;;;;;;;8.10;7.30;;;;;;;11.32;100.00;99562.16;4821146;29;20238;-77
2022/05/16 03:00:09;;;;;;;8.47;7.77;;;;;;;11.33;100.00;99571.84;4821765;29;20196;-76
2022/05/16 03:02:36;;;;;;;8.50;7.70;;;;;;;11.29;100.00;99569.84;4804727;29;20285;-77
2022/05/16 03:05:04;;;;;;;8.30;7.60;;;;;;;11.25;100.00;99569.47;4821034;29;20190;-78
2022/05/16 03:07:31;;;;;;;8.30;7.60;;;;;;;11.26;100.00;99573.78;4804969;29;20613;-77
2022/05/16 03:09:58;;;;;;;10.37;8.03;;;;;;;11.26;100.00;99568.41;4821295;29;20194;-78
2022/05/16 03:12:24;;;;;;;8.70;7.90;;;;;;;11.25;100.00;99572.13;4821692;29;20198;-78
2022/05/16 03:14:51;;;;;;;8.87;8.07;;;;;;;11.21;100.00;99573.63;4821100;29;20288;-77
2022/05/16 03:17:18;;;;;;;8.70;7.80;;;;;;;11.19;100.00;99573.06;4821000;29;20290;-77
2022/05/16 03:19:45;;;;;;;8.97;8.17;;;;;;;11.21;100.00;99580.88;4821047;29;20282;-77
2022/05/16 03:22:11;;;;;;;8.70;7.90;;;;;;;11.21;100.00;99573.63;4821184;29;20220;-78
2022/05/16 03:24:38;;;;;;;8.77;7.97;;;;;;;11.21;100.00;99578.19;4821293;29;20292;-77
2022/05/16 03:27:07;;;;;;;9.30;8.50;;;;;;;11.23;100.00;99579.63;4805505;29;20185;-77
2022/05/16 03:29:33;;;;;;;9.43;8.53;;;;;;;11.22;100.00;99588.69;4820860;29;20277;-77
2022/05/16 03:32:01;;;;;;;8.93;8.13;;;;;;;11.20;100.00;99576.56;4821180;29;20198;-78
2022/05/16 03:34:27;;;;;;;9.67;8.70;;;;;;;11.21;100.00;99588.91;4804918;29;20196;-78
2022/05/16 03:36:54;;;;;;;8.83;8.00;;;;;;;11.19;100.00;99583.78;4821427;29;20254;-78
2022/05/16 03:42:07;;;;;;;9.50;8.60;;;;;;;11.23;100.00;99586.84;4824201;29;20201;-77
2022/05/16 03:44:34;;;;;;;9.00;8.20;;;;;;;11.22;100.00;99579.81;4824030;29;20233;-78
2022/05/16 03:47:02;;;;;;;9.17;8.47;;;;;;;11.24;100.00;99589.31;4808130;29;20225;-77
2022/05/16 03:49:30;;;;;;;8.57;7.70;;;;;;;11.22;100.00;99583.31;4824658;29;20730;-79
2022/05/16 03:51:59;;;;;;;9.43;8.43;;;;;;;11.25;100.00;99587.41;4824087;29;20570;-77
2022/05/16 03:54:26;;;;;;;8.93;8.23;;;;;;;11.29;100.00;99589.41;4824208;29;20281;-78
2022/05/16 03:56:52;;;;;;;9.40;8.60;;;;;;;11.35;100.00;99582.34;4807825;29;20193;-77
2022/05/16 03:59:19;;;;;;;9.17;8.27;;;;;;;11.33;100.00;99584.44;4823685;29;20220;-78
2022/05/16 04:01:46;;;;;;;9.27;8.43;;;;;;;11.37;100.00;99586.44;4823607;29;20213;-77
2022/05/16 04:04:13;;;;;;;8.90;8.10;;;;;;;11.44;100.00;99589.03;4824084;29;20190;-78
2022/05/16 04:06:39;;;;;;;9.90;8.90;;;;;;;11.51;100.00;99591.66;4823796;29;20670;-77
2022/05/16 04:09:06;;;;;;;9.53;8.67;;;;;;;11.55;100.00;99592.81;4823825;29;20232;-78
2022/05/16 04:11:34;;;;;;;8.90;8.10;;;;;;;11.63;100.00;99596.00;4823822;29;20273;-77
2022/05/16 04:14:01;;;;;;;8.50;7.70;;;;;;;11.70;100.00;99598.63;4823892;29;20218;-78
2022/05/16 04:16:28;;;;;;;8.60;7.90;;;;;;;11.76;100.00;99595.03;4823610;29;20293;-77
2022/05/16 04:18:55;;;;;;;9.00;8.10;;;;;;;11.83;100.00;99591.22;4823720;29;20190;-77
2022/05/16 04:21:22;;;;;;;9.10;8.20;;;;;;;11.81;100.00;99597.84;4823444;29;20750;-79
2022/05/16 04:23:49;;;;;;;9.40;8.40;;;;;;;11.91;100.00;99598.94;4823882;29;20238;-77
2022/05/16 04:26:16;;;;;;;9.97;8.57;;;;;;;11.98;100.00;99598.03;4823638;29;20640;-78
2022/05/16 04:28:43;;;;;;;8.30;7.60;;;;;;;12.03;100.00;99595.47;4823405;29;20228;-77
2022/05/16 04:31:10;;;;;;;8.93;8.13;;;;;;;12.13;100.00;99604.59;4823592;29;20278;-77
2022/05/16 04:33:36;;;;;;;9.07;8.17;;;;;;;12.25;100.00;99599.25;4807494;29;20217;-78
2022/05/16 04:36:03;;;;;;;8.77;7.90;;;;;;;12.33;100.00;99597.06;4823315;29;20221;-77
2022/05/16 04:38:31;;;;;;;8.83;8.03;;;;;;;12.43;100.00;99607.22;4823571;29;20560;-78
2022/05/16 04:43:44;;;;;;;9.17;8.27;;;;;;;12.64;100.00;99608.53;4823326;29;20269;-77
2022/05/16 04:46:10;;;;;;;8.73;7.93;;;;;;;12.90;100.00;99615.31;4823257;29;20223;-77
2022/05/16 04:48:37;;;;;;;10.17;8.47;;;;;;;13.12;100.00;99617.19;4823394;29;20195;-77
2022/05/16 04:51:04;;;;;;;8.67;7.87;;;;;;;13.29;100.00;99625.34;4822237;29;20194;-78
2022/05/16 04:53:31;;;;;;;8.73;7.90;;;;;;;13.44;100.00;99627.53;4823265;29;20281;-77
2022/05/16 04:55:59;;;;;;;9.17;8.00;;;;;;;13.56;100.00;99629.16;4823080;29;20544;-78
2022/05/16 04:58:26;;;;;;;8.97;7.93;;;;;;;13.65;100.00;99632.28;4823108;29;20223;-77
2022/05/16 05:00:53;;;;;;;9.33;7.87;;;;;;;13.71;100.00;99634.03;4806805;29;20211;-78
2022/05/16 05:03:19;;;;;;;9.70;8.70;;;;;;;13.78;100.00;99631.16;4822809;29;20223;-77
2022/05/16 05:05:47;;;;;;;9.27;8.37;;;;;;;13.86;100.00;99638.84;4823044;29;20196;-77
2022/05/16 05:08:13;;;;;;;9.13;7.83;;;;;;;13.95;100.00;99634.75;4822648;29;20679;-78
2022/05/16 05:16:18;;;;;;;9.73;7.97;;;;;;;14.45;100.00;99642.94;4822513;29;20211;-77
2022/05/16 05:18:45;;;;;;;9.67;7.60;;;;;;;14.57;100.00;99646.34;4822412;29;20260;-78
2022/05/16 05:21:12;;;;;;;9.83;7.90;;;;;;;14.78;100.00;99640.22;4819646;29;20223;-77
2022/05/16 05:23:39;;;;;;;8.47;7.67;;;;;;;15.22;100.00;99643.81;4818603;29;20244;-77
2022/05/16 05:26:08;;;;;;;8.77;7.87;;;;;;;15.29;100.00;99644.47;4821959;29;20284;-77
2022/05/16 05:28:35;;;;;;;9.77;8.10;;;;;;;15.46;100.00;99640.88;4821342;29;20219;-78
2022/05/16 05:31:02;;;;;;;11.47;7.97;;;;;;;15.60;100.00;99642.19;4821678;29;20261;-78
2022/05/16 05:33:29;;;;;;;8.57;7.87;;;;;;;15.76;100.00;99633.19;4821993;29;20222;-82
2022/05/16 05:35:56;;;;;;;9.90;7.60;;;;;;;15.90;100.00;99622.81;4805952;29;20746;-77
2022/05/16 05:38:24;;;;;;;11.00;7.83;;;;;;;15.98;100.00;99633.16;4821768;29;20280;-78
2022/05/16 05:40:50;;;;;;;10.63;8.37;;;;;;;16.37;100.00;99631.91;4821400;29;20225;-77
2022/05/16 05:43:17;;;;;;;13.23;8.47;;;;;;;16.51;100.00;99625.00;4821733;29;20237;-78
2022/05/16 05:45:44;;;;;;;10.93;9.33;;;;;;;16.68;100.00;99622.19;4821656;29;20274;-78
2022/05/16 05:48:11;;;;;;;8.73;8.00;;;;;;;16.87;100.00;99625.28;4821794;29;20194;-77
2022/05/16 05:50:38;;;;;;;8.80;7.90;;;;;;;16.98;100.00;99632.41;4821192;29;20562;-77
2022/05/16 05:53:05;;;;;;;10.00;7.93;;;;;;;17.21;100.00;99626.59;4821641;29;20659;-78
2022/05/16 05:55:32;;;;;;;9.33;7.93;;;;;;;17.50;100.00;99622.38;4821261;29;20247;-78
2022/05/16 05:57:59;;;;;;;12.53;7.90;;;;;;;17.69;100.00;99628.16;4821872;29;20286;-78
2022/05/16 06:00:26;;;;;;;10.33;7.97;;;;;;;17.60;100.00;99627.06;4821154;29;20673;-77
2022/05/16 06:02:53;;;;;;;8.30;7.50;;;;;;;17.72;100.00;99629.53;4819766;29;20234;-78
2022/05/16 06:05:22;;;;;;;7.93;7.23;;;;;;;17.93;100.00;99633.94;4789896;29;20660;-78
2022/05/16 06:07:48;;;;;;;10.60;7.87;;;;;;;18.11;100.00;99635.31;4805228;29;21032;-78
2022/05/16 06:10:15;;;;;;;9.67;7.80;;;;;;;18.09;100.00;99640.22;4790439;29;20281;-77
2022/05/16 06:12:43;;;;;;;9.90;7.03;;;;;;;18.18;100.00;99633.19;4821289;29;20237;-78
2022/05/16 06:15:10;;;;;;;12.83;7.63;;;;;;;18.37;100.00;99637.00;4821034;29;20221;-77
2022/05/16 06:17:39;;;;;;;7.27;6.57;;;;;;;18.43;100.00;99635.91;4821454;29;20671;-78
2022/05/16 06:20:08;;;;;;;10.17;6.00;;;;;;;18.61;100.00;99640.03;4820813;29;20196;-79
2022/05/16 06:22:35;;;;;;;7.30;6.23;;;;;;;18.85;100.00;99635.63;4820892;29;20313;-78
2022/05/16 06:27:49;;;;;;;7.60;6.10;;;;;;;19.12;100.00;99633.44;4820962;29;20210;-80
2022/05/16 06:30:19;;;;;;;8.20;6.57;;;;;;;19.23;100.00;99628.78;4820833;29;20229;-78
2022/05/16 06:32:46;;;;;;;6.17;5.20;;;;;;;19.45;100.00;99628.50;4820813;29;20190;-78
2022/05/16 06:35:14;;;;;;;7.57;6.30;;;;;;;19.56;100.00;99630.88;4820842;29;20217;-78
2022/05/16 06:37:42;;;;;;;9.90;6.67;;;;;;;19.57;100.00;99632.50;4821082;29;20195;-78
2022/05/16 06:40:10;;;;;;;7.77;5.93;;;;;;;19.84;100.00;99640.25;4819945;29;20218;-79
2022/05/16 06:42:37;;;;;;;6.87;5.73;;;;;;;20.04;100.00;99642.88;4804510;29;20248;-78
2022/05/16 06:45:05;;;;;;;9.37;6.80;;;;;;;20.21;100.00;99648.72;4820614;29;20209;-78
2022/05/16 06:47:32;;;;;;;10.13;6.70;;;;;;;20.34;100.00;99652.78;4820736;29;20293;-78
2022/05/16 06:49:58;;;;;;;10.40;6.77;;;;;;;20.07;100.00;99646.91;4820667;29;20227;-78
2022/05/16 06:52:25;;;;;;;10.17;6.17;;;;;;;20.15;100.00;99640.91;4820602;29;20198;-78
2022/05/16 06:54:52;;;;;;;10.07;6.33;;;;;;;19.99;100.00;99645.63;4820508;29;20539;-78
2022/05/16 06:57:20;;;;;;;9.07;6.40;;;;;;;20.26;100.00;99634.28;4820550;29;20282;-78
2022/05/16 06:59:47;;;;;;;10.00;5.97;;;;;;;20.47;97.26;99638.53;4820474;29;20196;-78
2022/05/16 07:02:13;;;;;;;13.80;6.03;;;;;;;20.56;97.62;99636.81;4820013;29;20315;-77
2022/05/16 07:04:40;;;;;;;6.97;6.27;;;;;;;20.41;99.52;99641.56;4820321;29;20579;-79
2022/05/16 07:07:11;;;;;;;11.53;6.57;;;;;;;20.19;100.00;99634.63;4820580;29;20275;-78
2022/05/16 07:09:41;;;;;;;9.73;5.97;;;;;;;20.33;100.00;99636.72;4820334;29;20278;-78
2022/05/16 07:12:09;;;;;;;8.00;5.70;;;;;;;20.60;100.00;99637.88;4820877;29;20746;-78
2022/05/16 07:14:37;;;;;;;8.27;5.97;;;;;;;20.81;99.38;99634.97;4821670;29;20250;-78
2022/05/16 07:17:05;;;;;;;7.70;5.53;;;;;;;20.78;100.00;99632.81;4807670;29;20196;-79
2022/05/16 07:19:34;;;;;;;8.67;5.80;;;;;;;20.77;95.21;99636.63;4824020;29;20940;-79
2022/05/16 07:22:13;;;;;;;8.47;6.30;;;;;;;20.70;96.13;99631.53;4823909;29;20288;-78
2022/05/16 07:24:41;;;;;;;7.97;5.80;;;;;;;20.58;94.50;99634.59;4808358;29;20239;-78
2022/05/16 07:29:53;;;;;;;6.93;5.13;;;;;;;20.98;94.56;99630.72;4823777;29;20259;-79
2022/05/16 07:32:20;;;;;;;7.63;5.03;;;;;;;20.98;91.43;99638.91;4823908;29;20292;-79
2022/05/16 07:34:47;;;;;;;8.40;4.77;;;;;;;21.20;89.33;99638.41;4823738;29;20227;-79
2022/05/16 07:37:14;;;;;;;7.93;5.13;;;;;;;21.41;83.46;99645.28;4823972;29;20227;-78
2022/05/16 07:39:41;;;;;;;8.00;4.80;;;;;;;21.47;80.06;99646.81;4807360;29;20217;-79
2022/05/16 07:42:09;;;;;;;8.57;4.40;;;;;;;21.14;79.05;99633.31;4823861;29;20697;-79
2022/05/16 07:44:38;;;;;;;6.17;4.50;;;;;;;21.59;80.54;99631.97;4823459;29;20192;-78
2022/05/16 07:47:06;;;;;;;6.30;4.20;;;;;;;21.77;80.25;99637.47;4807258;29;20624;-78
2022/05/16 07:49:33;;;;;;;8.00;4.63;;;;;;;21.91;77.01;99630.19;4823622;29;20283;-79
2022/05/16 07:52:00;;;;;;;7.53;4.40;;;;;;;22.13;74.54;99631.53;4822987;29;20223;-79
2022/05/16 07:54:26;;;;;;;6.47;4.60;;;;;;;22.27;77.19;99635.16;4823384;29;20281;-78
2022/05/16 07:56:54;;;;;;;7.93;4.43;;;;;;;22.22;73.35;99636.03;4823315;29;20197;-79
2022/05/16 07:59:21;;;;;;;9.30;4.90;;;;;;;22.35;71.00;99635.28;4807432;29;20226;-78
2022/05/16 08:01:48;;;;;;;4.87;4.37;;;;;;;22.46;72.91;99635.13;4822379;29;20279;-79
2022/05/16 08:04:15;;;;;;;5.97;4.60;;;;;;;22.71;70.48;99638.28;4823450;29;20221;-78
2022/05/16 08:06:42;;;;;;;7.37;4.40;;;;;;;22.93;71.27;99634.09;4822588;29;20197;-79
2022/05/16 08:11:54;;;;;;;5.43;4.00;;;;;;;22.97;71.29;99619.53;4822928;29;20178;-78
2022/05/16 08:14:21;;;;;;;8.03;4.30;;;;;;;23.16;67.91;99623.00;4823095;29;20232;-78
2022/05/16 08:16:48;;;;;;;7.28;4.40;;;;;;;23.23;67.07;99620.69;4822881;29;20202;-78
2022/05/16 08:19:15;;;;;;;7.30;4.65;;;;;;;23.33;67.45;99622.38;4823118;29;20225;-78
2022/05/16 08:21:42;;;;;;;9.00;5.22;;;;;;;23.22;67.63;99629.19;4822406;29;20229;-78
2022/05/16 08:24:11;;;;;;;7.95;4.63;;;;;;;23.10;70.01;99626.91;4822970;29;20238;-78
2022/05/16 08:26:38;;;;;;;7.65;4.90;;;;;;;23.10;64.18;99620.66;4821334;29;20209;-78
2022/05/16 08:29:05;;;;;;;7.43;4.15;;;;;;;23.00;66.13;99629.06;4822532;29;20277;-77
2022/05/16 08:31:32;;;;;;;9.13;4.70;;;;;;;23.11;66.82;99631.28;4806354;29;20216;-78
2022/05/16 08:33:59;;;;;;;8.27;4.73;;;;;;;23.17;67.92;99635.56;4823120;29;20204;-78
2022/05/16 08:42:05;;;;;;;6.22;4.18;;;;;;;23.58;61.81;99635.59;4822655;29;20209;-78
2022/05/16 08:44:47;;;;;;;5.65;3.70;;;;;;;23.83;61.34;99633.44;4822694;29;20189;-79
2022/05/16 08:47:16;;;;;;;5.22;4.00;;;;;;;23.85;60.65;99639.41;4806495;29;20178;-78
2022/05/16 08:49:54;;;;;;;4.57;3.90;;;;;;;23.91;61.02;99632.69;4822023;29;20250;-77
2022/05/16 08:52:27;;;;;;;8.23;4.22;;;;;;;23.95;60.18;99631.78;4806424;29;20206;-78
2022/05/16 08:55:19;;;;;;;7.70;4.60;;;;;;;23.59;59.56;99629.00;4822407;29;20270;-79
2022/05/16 08:57:56;;;;;;;7.45;4.50;;;;;;;23.75;62.58;99625.97;4821977;29;20557;-78
2022/05/16 09:00:35;;;;;;;7.35;3.78;;;;;;;24.06;61.69;99627.72;4806080;29;20187;-79
2022/05/16 09:03:09;;;;;;;7.55;4.25;;;;;;;23.96;63.32;99621.66;4805889;29;20205;-78
2022/05/16 09:05:40;;;;;;;6.22;4.30;;;;;;;24.33;58.20;99620.53;4805788;29;20201;-78
2022/05/16 09:08:10;;;;;;;7.30;3.97;;;;;;;24.45;60.89;99618.06;4806332;29;20231;-78
2022/05/16 09:10:51;;;;;;;5.70;4.30;;;;;;;24.55;57.11;99621.34;4805754;29;20233;-80
2022/05/16 09:13:34;;;;;;;5.05;3.90;;;;;;;24.56;53.83;99622.16;4822296;29;20228;-77
2022/05/16 09:16:09;;;;;;;6.22;3.80;;;;;;;24.64;53.61;99612.38;4805751;29;20218;-78
2022/05/16 09:18:44;;;;;;;8.63;3.92;;;;;;;24.75;55.25;99608.28;4806228;29;20193;-79
2022/05/16 09:21:22;;;;;;;6.93;3.75;;;;;;;24.83;57.33;99613.78;4805976;29;20318;-78
2022/05/16 09:24:05;;;;;;;4.78;3.47;;;;;;;24.95;56.03;99613.25;4805692;29;20264;-78
2022/05/16 09:26:57;;;;;;;7.80;3.85;;;;;;;24.96;56.32;99612.13;4805437;29;20184;-77
2022/05/16 09:29:26;;;;;;;6.50;4.28;;;;;;;25.07;53.23;99613.47;4821956;29;20213;-78
2022/05/16 09:32:03;;;;;;;5.38;3.35;;;;;;;25.13;54.25;99614.16;4821709;29;20189;-78
2022/05/16 09:34:32;;;;;;;7.18;4.00;;;;;;;25.23;52.90;99611.94;4806015;29;20266;-79
2022/05/16 09:36:59;;;;;;;5.88;4.22;;;;;;;25.34;50.56;99607.78;4821882;29;20197;-78
2022/05/16 09:39:31;;;;;;;6.32;3.88;;;;;;;25.43;50.25;99605.03;4821236;29;20244;-77
2022/05/16 09:42:13;;;;;;;6.40;3.72;;;;;;;25.62;51.75;99607.56;4821502;29;20729;-78
2022/05/16 09:44:45;;;;;;;6.10;3.88;;;;;;;25.44;49.97;99607.47;4805332;29;20221;-78
2022/05/16 09:47:28;;;;;;;4.70;3.50;;;;;;;25.73;51.84;99606.13;4821384;29;20189;-78
2022/05/16 09:50:07;;;;;;;4.00;3.60;;;;;;;25.50;50.89;99604.59;4821902;29;20213;-79
2022/05/16 09:52:42;;;;;;;7.72;3.80;;;;;;;25.59;50.52;99603.53;4821337;29;20263;-78
2022/05/16 09:55:25;;;;;;;7.70;4.20;;;;;;;25.66;49.37;99603.84;4806287;29;20200;-78
2022/05/16 09:58:00;;;;;;;6.10;3.70;;;;;;;25.96;48.31;99591.16;4821257;29;20266;-78
2022/05/16 10:00:30;;;;;;;5.38;3.88;;;;;;;26.15;48.23;99593.56;4821125;29;20651;-78
2022/05/16 10:03:22;;;;;;;8.15;3.65;;;;;;;26.35;48.98;99603.13;4821057;29;20206;-78
2022/05/16 10:05:51;;;;;;;4.80;3.72;;;;;;;26.47;48.81;99598.59;4820871;29;20190;-78
2022/05/16 10:08:50;;;;;;;7.07;3.70;;;;;;;26.60;48.05;99603.09;4821329;29;20277;-78
2022/05/16 10:11:26;;;;;;;8.05;3.75;;;;;;;26.45;47.16;99587.13;4780745;29;20681;-78
2022/05/16 10:13:54;;;;;;;6.50;3.60;;;;;;;26.31;46.66;99586.50;4805257;29;20886;-79
2022/05/16 10:16:22;;;;;;;6.20;3.47;;;;;;;26.37;47.97;99590.69;4820273;29;20262;-78
2022/05/16 10:18:53;;;;;;;4.68;3.50;;;;;;;26.35;48.75;99589.41;4804965;29;20190;-78
2022/05/16 10:21:48;;;;;;;8.38;4.15;;;;;;;25.99;50.28;99589.72;4804436;29;20681;-78
2022/05/16 10:24:16;;;;;;;6.40;3.53;;;;;;;26.23;47.96;99577.13;4821217;29;20268;-77
2022/05/16 10:26:46;;;;;;;4.45;3.50;;;;;;;26.37;49.71;99574.19;4804490;29;20274;-78
2022/05/16 10:29:27;;;;;;;5.45;3.85;;;;;;;26.47;50.06;99581.31;4821359;29;20268;-77
2022/05/16 10:34:49;;;;;;;8.88;6.13;;;;;;;26.99;46.94;99568.25;4807078;29;20278;-78
2022/05/16 10:37:16;;;;;;;6.93;4.00;;;;;;;26.94;46.45;99565.69;4804456;29;20193;-78
2022/05/16 10:39:46;;;;;;;4.88;3.50;;;;;;;27.18;46.82;99565.91;4804467;29;20221;-78
2022/05/16 10:42:18;;;;;;;6.65;3.47;;;;;;;27.12;43.70;99562.53;4804388;29;20201;-78
2022/05/16 10:45:00;;;;;;;4.53;3.13;;;;;;;27.29;46.01;99558.09;4804442;29;20296;-78
2022/05/16 10:47:35;;;;;;;4.97;3.38;;;;;;;27.38;45.25;99561.63;4804705;29;20202;-78
2022/05/16 10:50:07;;;;;;;9.30;3.35;;;;;;;27.45;45.45;99562.69;4803933;29;20240;-79
2022/05/16 10:52:45;;;;;;;7.05;3.47;;;;;;;27.59;45.06;99552.28;4820176;29;20205;-78
2022/05/16 10:55:12;;;;;;;3.58;3.15;;;;;;;27.73;42.98;99562.22;4820838;29;20290;-79
2022/05/16 10:57:44;;;;;;;5.60;3.47;;;;;;;27.73;43.02;99542.94;4820531;29;20198;-78
2022/05/16 11:00:21;;;;;;;7.28;3.30;;;;;;;27.68;42.60;99549.47;4820642;29;20760;-78
2022/05/16 11:03:15;;;;;;;8.70;3.38;;;;;;;27.47;44.18;99543.91;4803999;29;20193;-78
2022/05/16 11:06:03;;;;;;;6.40;3.05;;;;;;;27.81;44.30;99539.34;4820390;29;20186;-78
2022/05/16 11:08:46;;;;;;;5.25;3.33;;;;;;;28.10;42.58;99541.19;4820468;29;20213;-78
2022/05/16 11:11:26;;;;;;;7.57;3.53;;;;;;;28.27;39.23;99535.56;4789423;29;20257;-78
2022/05/16 11:13:56;;;;;;;7.05;3.13;;;;;;;28.57;38.45;99536.22;4804605;29;20185;-79
2022/05/16 11:16:40;;;;;;;3.70;3.22;;;;;;;28.64;37.00;99529.00;4820780;29;20208;-79
2022/05/16 11:19:25;;;;;;;7.30;3.28;;;;;;;28.70;38.36;99530.38;4820689;29;20182;-79
2022/05/16 11:21:59;;;;;;;4.47;3.33;;;;;;;28.97;37.25;99525.41;4818788;29;20693;-78
2022/05/16 11:24:53;;;;;;;3.72;2.75;;;;;;;29.01;36.63;99520.81;4803926;29;20715;-78
2022/05/16 11:27:34;;;;;;;4.18;3.80;;;;;;;29.10;37.63;99521.50;4801385;29;20206;-78
2022/05/16 11:30:20;;;;;;;4.28;3.45;;;;;;;28.94;40.13;99518.63;4803635;29;20717;-78
2022/05/16 11:33:01;;;;;;;4.50;3.60;;;;;;;28.45;39.59;99521.28;4803816;29;20182;-78
2022/05/16 11:35:42;;;;;;;6.45;3.30;;;;;;;28.62;38.78;99514.75;4820052;29;20184;-78
2022/05/16 11:38:27;;;;;;;5.80;2.90;;;;;;;29.46;38.21;99507.69;4804351;29;20647;-78
2022/05/16 11:41:34;;;;;;;3.25;2.95;;;;;;;29.82;35.90;99506.00;4820314;29;20201;-78
2022/05/16 11:44:30;;;;;;;3.90;3.35;;;;;;;30.00;35.50;99504.59;4804202;29;20244;-78
2022/05/16 11:47:17;;;;;;;4.95;3.13;;;;;;;30.22;34.83;99503.22;4820127;29;20194;-78
2022/05/16 11:50:26;;;;;;;3.40;3.10;;;;;;;30.36;33.30;99503.63;4807007;29;20186;-78
2022/05/16 11:53:47;;;;;;;4.57;3.20;;;;;;;30.69;32.50;99497.78;4798765;29;20844;-78
2022/05/16 12:02:12;;;;;;;6.70;3.35;;;;;;;31.77;32.87;99481.41;4813789;29;20590;-78
2022/05/16 12:04:44;;;;;;;4.28;3.22;;;;;;;31.91;31.57;99473.38;4822606;29;20758;-78
2022/05/16 12:07:21;;;;;;;5.57;3.13;;;;;;;31.90;32.67;99482.84;4806883;29;20186;-78
2022/05/16 12:10:19;;;;;;;3.70;3.20;;;;;;;31.95;31.54;99479.78;4807073;29;20185;-78
2022/05/16 12:12:52;;;;;;;3.70;3.35;;;;;;;31.92;31.50;99472.19;4822731;29;20182;-78
2022/05/16 12:15:28;;;;;;;6.53;3.42;;;;;;;31.62;32.07;99476.72;4807548;29;20658;-79
2022/05/16 12:17:57;;;;;;;4.20;3.20;;;;;;;31.87;31.78;99462.19;4792209;29;20280;-78
2022/05/16 12:20:58;;;;;;;4.18;3.00;;;;;;;31.97;31.25;99462.78;4822938;29;20217;-79
2022/05/16 12:23:49;;;;;;;4.15;3.13;;;;;;;31.92;32.41;99461.91;4822727;29;20237;-79